createdAt,value
2023-01-17T00:01:55.460Z,71.19
2023-01-17T00:04:40.676Z,71.36
2023-01-17T00:07:29.669Z,71.03
2023-01-17T00:09:58.600Z,70.64
2023-01-17T00:12:27.159Z,70.27
2023-01-17T00:14:56.320Z,70.15
2023-01-17T00:17:24.415Z,69.09
2023-01-17T00:20:09.855Z,68.75
2023-01-17T00:22:55.683Z,69.20
2023-01-17T00:25:47.576Z,68.45
2023-01-17T00:28:14.584Z,67.07
2023-01-17T00:30:41.183Z,67.45
2023-01-17T00:33:07.760Z,67.38
2023-01-17T00:35:34.979Z,66.89
2023-01-17T00:38:12.474Z,67.01
2023-01-17T00:40:40.922Z,67.46
2023-01-17T00:43:27.059Z,67.44
2023-01-17T00:46:12.761Z,66.86
2023-01-17T00:48:58.168Z,67.26
2023-01-17T00:51:44.607Z,67.49
2023-01-17T00:54:29.770Z,67.29
2023-01-17T00:57:15.133Z,66.64
2023-01-17T01:00:00.389Z,66.84
2023-01-17T01:02:46.140Z,66.68
2023-01-17T01:05:32.872Z,66.67
2023-01-17T01:08:19.174Z,66.04
2023-01-17T01:11:05.931Z,66.35
2023-01-17T01:13:52.263Z,66.90
2023-01-17T01:16:38.018Z,67.42
2023-01-17T01:19:24.555Z,67.98
2023-01-17T01:22:09.674Z,68.54
2023-01-17T01:24:55.053Z,68.55
2023-01-17T01:27:40.405Z,68.54
2023-01-17T01:30:26.253Z,67.60
2023-01-17T01:33:11.615Z,67.85
2023-01-17T01:35:38.246Z,68.04
2023-01-17T01:38:04.813Z,67.98
2023-01-17T01:40:31.482Z,68.23
2023-01-17T01:42:59.965Z,68.57
2023-01-17T01:45:29.821Z,68.90
2023-01-17T01:48:04.231Z,68.92
2023-01-17T01:50:33.821Z,68.70
2023-01-17T01:53:03.427Z,69.34
2023-01-17T01:55:36.483Z,69.22
2023-01-17T01:58:10.665Z,69.46
2023-01-17T02:00:40.823Z,69.28
2023-01-17T02:03:13.084Z,69.20
2023-01-17T02:05:42.447Z,68.41
2023-01-17T02:08:13.218Z,68.53
2023-01-17T02:10:41.468Z,68.39
2023-01-17T02:13:09.592Z,68.58
2023-01-17T02:15:45.850Z,68.05
2023-01-17T02:18:43.865Z,68.42
2023-01-17T02:21:24.307Z,68.54
2023-01-17T02:24:09.772Z,68.98
2023-01-17T02:26:48.462Z,69.08
2023-01-17T02:29:43.240Z,68.87
2023-01-17T02:32:34.810Z,68.97
2023-01-17T02:35:13.647Z,69.14
2023-01-17T02:37:58.320Z,69.63
2023-01-17T02:40:34.605Z,70.13
2023-01-17T02:43:06.469Z,70.34
2023-01-17T02:45:33.060Z,70.75
2023-01-17T02:47:59.648Z,72.08
2023-01-17T02:50:50.442Z,72.53
2023-01-17T02:53:42.938Z,73.52
2023-01-17T02:56:34.311Z,75.07
2023-01-17T02:59:45.073Z,75.79
2023-01-17T03:02:28.272Z,76.92
2023-01-17T03:05:04.047Z,77.84
2023-01-17T03:07:32.038Z,78.51
2023-01-17T03:10:01.970Z,79.37
2023-01-17T03:12:32.334Z,79.44
2023-01-17T03:14:59.248Z,80.71
2023-01-17T03:17:32.447Z,81.97
2023-01-17T03:19:59.161Z,82.16
2023-01-17T03:22:25.789Z,83.29
2023-01-17T03:24:52.370Z,83.61
2023-01-17T03:27:18.953Z,83.91
2023-01-17T03:29:45.549Z,83.84
2023-01-17T03:32:12.180Z,83.88
2023-01-17T03:34:38.838Z,83.35
2023-01-17T03:37:05.558Z,83.19
2023-01-17T03:39:32.268Z,82.62
2023-01-17T03:41:58.832Z,82.98
2023-01-17T03:44:25.436Z,82.60
2023-01-17T03:46:52.030Z,82.45
2023-01-17T03:49:18.565Z,82.26
2023-01-17T03:51:45.152Z,81.98
2023-01-17T03:54:11.824Z,81.27
2023-01-17T03:56:38.392Z,80.98
2023-01-17T03:59:04.981Z,79.59
2023-01-17T04:01:31.777Z,80.30
2023-01-17T04:03:58.625Z,81.05
2023-01-17T04:06:25.309Z,81.65
2023-01-17T04:08:51.861Z,80.47
2023-01-17T04:11:18.429Z,80.12
2023-01-17T04:13:45.048Z,77.77
2023-01-17T04:18:45.009Z,79.07
2023-01-17T04:21:11.658Z,79.17
2023-01-17T04:23:38.470Z,77.35
2023-01-17T04:26:05.419Z,77.90
2023-01-17T04:28:32.137Z,79.28
2023-01-17T04:30:59.909Z,79.40
2023-01-17T04:33:26.829Z,79.07
2023-01-17T04:35:54.198Z,78.72
2023-01-17T04:38:21.667Z,80.03
2023-01-17T04:40:48.654Z,79.74
2023-01-17T04:43:16.483Z,80.39
2023-01-17T04:45:43.764Z,80.05
2023-01-17T04:48:12.569Z,80.45
2023-01-17T04:50:39.910Z,79.57
2023-01-17T04:53:07.594Z,79.54
2023-01-17T04:55:34.410Z,78.07
2023-01-17T04:58:01.091Z,77.42
2023-01-17T05:00:27.970Z,77.64
2023-01-17T05:02:54.601Z,77.70
2023-01-17T05:05:21.327Z,77.00
2023-01-17T05:07:55.526Z,75.91
2023-01-17T05:10:22.358Z,76.24
2023-01-17T05:12:56.392Z,75.45
2023-01-17T05:15:23.961Z,75.75
2023-01-17T05:17:52.331Z,75.96
2023-01-17T05:20:20.022Z,76.43
2023-01-17T05:22:55.355Z,76.69
2023-01-17T05:25:26.712Z,76.98
2023-01-17T05:27:53.703Z,76.98
2023-01-17T05:30:21.082Z,76.80
2023-01-17T05:32:52.607Z,76.80
2023-01-17T05:35:21.964Z,77.28
2023-01-17T05:37:50.330Z,77.25
2023-01-17T05:40:21.348Z,76.70
2023-01-17T05:42:49.943Z,76.43
2023-01-17T05:45:18.072Z,76.86
2023-01-17T05:47:45.604Z,77.07
2023-01-17T05:50:14.274Z,76.12
2023-01-17T05:52:41.307Z,76.29
2023-01-17T05:55:08.732Z,76.72
2023-01-17T05:57:35.352Z,77.16
2023-01-17T06:00:02.127Z,76.71
2023-01-17T06:02:32.120Z,76.89
2023-01-17T06:04:58.791Z,76.77
2023-01-17T06:07:25.409Z,77.00
2023-01-17T06:09:52.231Z,76.63
2023-01-17T06:12:19.247Z,76.95
2023-01-17T06:14:46.671Z,76.13
2023-01-17T06:17:13.263Z,76.42
2023-01-17T06:19:39.839Z,75.75
2023-01-17T06:22:06.831Z,74.39
2023-01-17T06:24:33.886Z,72.77
2023-01-17T06:27:00.796Z,72.83
2023-01-17T06:29:27.459Z,72.98
2023-01-17T06:31:54.255Z,72.78
2023-01-17T06:34:20.948Z,73.03
2023-01-17T06:36:47.545Z,72.67
2023-01-17T06:39:15.155Z,73.16
2023-01-17T06:41:42.927Z,73.47
2023-01-17T06:44:10.088Z,73.25
2023-01-17T06:46:36.773Z,73.02
2023-01-17T06:49:03.485Z,72.98
2023-01-17T06:51:30.167Z,73.04
2023-01-17T06:53:56.731Z,73.44
2023-01-17T06:56:23.440Z,73.06
2023-01-17T06:58:51.330Z,73.66
2023-01-17T07:01:18.891Z,74.51
2023-01-17T07:03:45.508Z,75.36
2023-01-17T07:06:12.314Z,73.86
2023-01-17T07:08:38.931Z,73.30
2023-01-17T07:11:10.722Z,73.42
2023-01-17T07:13:38.279Z,73.91
2023-01-17T07:16:06.584Z,74.47
2023-01-17T07:18:34.057Z,74.27
2023-01-17T07:21:01.066Z,74.76
2023-01-17T07:23:27.740Z,73.80
2023-01-17T07:25:56.627Z,74.16
2023-01-17T07:28:24.712Z,72.83
2023-01-17T07:30:51.894Z,72.52
2023-01-17T07:33:19.046Z,73.00
2023-01-17T07:35:46.260Z,73.54
2023-01-17T07:38:18.771Z,73.33
2023-01-17T07:40:46.467Z,74.08
2023-01-17T07:43:14.065Z,73.98
2023-01-17T07:45:50.691Z,74.26
2023-01-17T07:48:23.889Z,74.38
2023-01-17T07:50:57.568Z,74.79
2023-01-17T07:53:26.281Z,74.75
2023-01-17T07:55:53.081Z,74.99
2023-01-17T07:58:20.201Z,74.82
2023-01-17T08:00:46.952Z,74.94
2023-01-17T08:03:17.190Z,75.57
2023-01-17T08:05:53.497Z,76.28
2023-01-17T08:08:20.107Z,75.93
2023-01-17T08:10:47.230Z,75.51
2023-01-17T08:13:13.809Z,74.47
2023-01-17T08:15:40.554Z,75.09
2023-01-17T08:18:07.112Z,75.85
2023-01-17T08:20:33.725Z,75.28
2023-01-17T08:23:00.311Z,74.03
2023-01-17T08:25:27.370Z,73.91
2023-01-17T08:27:57.408Z,72.92
2023-01-17T08:30:24.351Z,73.16
2023-01-17T08:32:51.038Z,73.31
2023-01-17T08:35:19.800Z,73.33
2023-01-17T08:37:47.674Z,72.95
2023-01-17T08:40:18.833Z,72.72
2023-01-17T08:42:53.968Z,72.75
2023-01-17T08:45:20.589Z,72.24
2023-01-17T08:47:47.193Z,71.87
2023-01-17T08:50:13.824Z,72.13
2023-01-17T08:52:40.396Z,72.11
2023-01-17T08:55:10.019Z,71.81
2023-01-17T08:57:36.720Z,71.17
2023-01-17T09:00:03.718Z,71.17
2023-01-17T09:02:31.869Z,71.26
2023-01-17T09:05:00.387Z,71.66
2023-01-17T09:07:27.071Z,70.79
2023-01-17T09:09:53.891Z,70.01
2023-01-17T09:12:22.144Z,70.41
2023-01-17T09:14:49.094Z,70.48
2023-01-17T09:17:15.977Z,71.74
2023-01-17T09:19:47.245Z,72.41
2023-01-17T09:22:14.078Z,72.63
2023-01-17T09:24:40.723Z,73.28
2023-01-17T09:27:07.408Z,73.21
2023-01-17T09:29:34.106Z,73.54
2023-01-17T09:32:00.967Z,73.33
2023-01-17T09:34:27.969Z,72.43
2023-01-17T09:36:56.894Z,71.64
2023-01-17T09:39:23.622Z,71.78
2023-01-17T09:42:20.737Z,71.76
2023-01-17T09:44:52.354Z,71.45
2023-01-17T09:47:34.577Z,70.48
2023-01-17T09:50:32.556Z,70.07
2023-01-17T09:53:13.615Z,69.34
2023-01-17T09:55:49.030Z,68.56
2023-01-17T09:58:40.655Z,69.00
2023-01-17T10:01:07.456Z,68.32
2023-01-17T10:03:43.616Z,67.50
2023-01-17T10:06:22.152Z,68.57
2023-01-17T10:09:08.025Z,67.31
2023-01-17T10:11:46.004Z,69.29
2023-01-17T10:14:51.620Z,68.94
2023-01-17T10:17:36.267Z,73.03
2023-01-17T10:20:41.123Z,70.65
2023-01-17T10:23:31.288Z,71.08
2023-01-17T10:26:05.364Z,70.20
2023-01-17T10:28:46.698Z,71.03
2023-01-17T10:31:22.410Z,70.27
2023-01-17T10:33:54.886Z,70.84
2023-01-17T10:36:26.985Z,70.40
2023-01-17T10:38:57.535Z,70.35
2023-01-17T10:41:35.470Z,67.98
2023-01-17T10:44:39.441Z,68.81
2023-01-17T10:47:11.760Z,66.93
2023-01-17T10:49:43.498Z,66.33
2023-01-17T10:52:25.179Z,67.15
2023-01-17T10:55:12.048Z,67.66
2023-01-17T10:57:41.277Z,67.16
2023-01-17T11:00:44.104Z,65.74
2023-01-17T11:03:16.293Z,65.44
2023-01-17T11:05:43.552Z,65.63
2023-01-17T11:08:11.832Z,65.57
2023-01-17T11:10:49.045Z,65.81
2023-01-17T11:13:30.656Z,65.80
2023-01-17T11:16:07.103Z,65.62
2023-01-17T11:18:39.147Z,66.61
2023-01-17T11:21:13.295Z,66.12
2023-01-17T11:23:42.747Z,66.13
2023-01-17T11:26:20.036Z,65.36
2023-01-17T11:28:46.965Z,64.66
2023-01-17T11:31:16.448Z,64.60
2023-01-17T11:33:49.046Z,65.17
2023-01-17T11:36:17.100Z,64.32
2023-01-17T11:39:04.227Z,62.40
2023-01-17T11:41:41.482Z,63.60
2023-01-17T11:44:26.782Z,61.23
2023-01-17T11:47:11.541Z,62.99
2023-01-17T11:49:39.625Z,62.16
2023-01-17T11:52:11.370Z,61.51
2023-01-17T11:54:40.407Z,60.53
2023-01-17T11:57:20.100Z,62.56
2023-01-17T11:59:47.638Z,62.44
2023-01-17T12:02:49.906Z,62.74
2023-01-17T12:05:34.891Z,62.02
2023-01-17T12:08:13.852Z,61.94
2023-01-17T12:11:13.681Z,61.85
2023-01-17T12:14:00.403Z,61.38
2023-01-17T12:16:35.930Z,62.21
2023-01-17T12:19:27.261Z,61.45
2023-01-17T12:22:07.538Z,61.30
2023-01-17T12:24:52.707Z,59.72
2023-01-17T12:27:38.091Z,59.12
2023-01-17T12:30:30.733Z,60.51
2023-01-17T12:33:21.987Z,60.07
2023-01-17T12:35:52.759Z,58.99
2023-01-17T12:38:39.793Z,59.40
2023-01-17T12:41:20.547Z,59.07
2023-01-17T12:43:47.652Z,58.69
2023-01-17T12:46:31.819Z,59.49
2023-01-17T12:49:08.495Z,58.29
2023-01-17T12:51:39.106Z,59.16
2023-01-17T12:54:18.177Z,57.64
2023-01-17T12:56:48.037Z,55.78
2023-01-17T12:59:17.762Z,55.87
2023-01-17T13:01:57.323Z,54.03
2023-01-17T13:04:33.087Z,54.60
2023-01-17T13:07:00.008Z,56.02
2023-01-17T13:09:37.884Z,55.75
2023-01-17T13:12:08.546Z,54.44
2023-01-17T13:14:35.828Z,55.55
2023-01-17T13:17:31.539Z,55.10
2023-01-17T13:20:19.910Z,54.93
2023-01-17T13:22:47.330Z,55.52
2023-01-17T13:25:37.809Z,54.46
2023-01-17T13:28:14.439Z,54.86
2023-01-17T13:31:10.288Z,53.95
2023-01-17T13:34:02.913Z,54.50
2023-01-17T13:37:01.448Z,55.39
2023-01-17T13:40:02.021Z,55.38
2023-01-17T13:42:55.389Z,55.55
2023-01-17T13:45:26.163Z,55.06
2023-01-17T13:47:53.931Z,54.10
2023-01-17T13:50:38.605Z,54.69
2023-01-17T13:53:26.983Z,55.06
2023-01-17T13:55:59.395Z,54.80
2023-01-17T13:58:30.155Z,54.35
2023-01-17T14:00:56.892Z,53.95
2023-01-17T14:03:54.279Z,52.77
2023-01-17T14:06:33.117Z,53.01
2023-01-17T14:09:11.810Z,53.85
2023-01-17T14:12:08.864Z,50.13
2023-01-17T14:14:41.641Z,49.33
2023-01-17T14:17:48.119Z,49.31
2023-01-17T14:20:16.782Z,49.17
2023-01-17T14:22:55.907Z,48.92
2023-01-17T14:25:27.942Z,49.43
2023-01-17T14:28:00.353Z,49.33
2023-01-17T14:30:34.260Z,49.37
2023-01-17T14:33:01.128Z,49.31
2023-01-17T14:35:36.870Z,49.80
2023-01-17T14:38:16.026Z,48.60
2023-01-17T14:40:52.355Z,49.99
2023-01-17T14:43:21.753Z,49.42
2023-01-17T14:45:48.734Z,49.03
2023-01-17T14:48:21.576Z,49.31
2023-01-17T14:50:54.150Z,51.25
2023-01-17T14:53:28.668Z,51.66
2023-01-17T14:56:16.766Z,51.59
2023-01-17T14:58:46.462Z,51.42
2023-01-17T15:01:15.991Z,51.43
2023-01-17T15:03:48.879Z,51.00
2023-01-17T15:06:40.349Z,50.47
2023-01-17T15:09:12.340Z,51.46
2023-01-17T15:11:39.373Z,50.84
2023-01-17T15:14:06.902Z,51.13
2023-01-17T15:16:36.859Z,52.16
2023-01-17T15:19:11.640Z,51.94
2023-01-17T15:21:42.569Z,51.87
2023-01-17T15:24:18.910Z,50.70
2023-01-17T15:26:45.925Z,50.43
2023-01-17T15:29:19.943Z,50.64
2023-01-17T15:31:50.475Z,49.75
2023-01-17T15:34:30.369Z,50.42
2023-01-17T15:37:00.184Z,49.92
2023-01-17T15:39:32.501Z,49.29
2023-01-17T15:42:02.472Z,50.47
2023-01-17T15:44:48.152Z,51.16
2023-01-17T15:47:28.108Z,51.37
2023-01-17T15:49:55.096Z,51.23
2023-01-17T15:52:21.815Z,51.26
2023-01-17T15:54:52.684Z,51.00
2023-01-17T15:57:36.911Z,50.90
2023-01-17T16:00:20.322Z,50.60
2023-01-17T16:02:58.675Z,50.76
2023-01-17T16:05:27.465Z,49.87
2023-01-17T16:08:17.898Z,50.47
2023-01-17T16:10:44.832Z,49.48
2023-01-17T16:13:13.525Z,49.89
2023-01-17T16:15:42.875Z,49.67
2023-01-17T16:18:15.392Z,49.63
2023-01-17T16:20:53.785Z,50.26
2023-01-17T16:23:20.603Z,51.17
2023-01-17T16:25:48.200Z,50.05
2023-01-17T16:28:14.890Z,50.56
2023-01-17T16:30:41.831Z,51.30
2023-01-17T16:33:11.632Z,51.66
2023-01-17T16:35:39.968Z,52.19
2023-01-17T16:38:11.071Z,50.67
2023-01-17T16:40:44.325Z,51.78
2023-01-17T16:43:13.143Z,53.32
2023-01-17T16:45:45.839Z,53.17
2023-01-17T16:48:13.055Z,52.69
2023-01-17T16:50:53.231Z,53.47
2023-01-17T16:53:24.686Z,53.36
2023-01-17T16:55:55.572Z,53.49
2023-01-17T16:58:23.426Z,53.71
2023-01-17T17:00:50.317Z,54.11
2023-01-17T17:03:19.200Z,53.19
2023-01-17T17:05:55.249Z,53.56
2023-01-17T17:08:22.024Z,52.84
2023-01-17T17:10:48.671Z,52.42
2023-01-17T17:13:15.587Z,51.67
2023-01-17T17:15:46.254Z,51.45
2023-01-17T17:18:15.537Z,50.96
2023-01-17T17:20:43.322Z,51.27
2023-01-17T17:23:10.457Z,51.27
2023-01-17T17:25:38.219Z,50.43
2023-01-17T17:28:06.005Z,51.28
2023-01-17T17:30:33.535Z,51.71
2023-01-17T17:33:00.533Z,52.10
2023-01-17T17:35:27.132Z,52.10
2023-01-17T17:37:54.399Z,52.34
2023-01-17T17:40:21.830Z,52.33
2023-01-17T17:42:48.800Z,52.75
2023-01-17T17:45:15.767Z,52.83
2023-01-17T17:47:42.541Z,53.06
2023-01-17T17:50:09.611Z,53.39
2023-01-17T17:52:36.556Z,53.69
2023-01-17T17:55:03.539Z,53.38
2023-01-17T17:57:30.191Z,52.63
2023-01-17T17:59:59.471Z,53.53
2023-01-17T18:02:26.045Z,53.51
2023-01-17T18:04:52.761Z,53.93
2023-01-17T18:07:20.058Z,54.09
2023-01-17T18:09:47.167Z,53.95
2023-01-17T18:12:13.833Z,55.15
2023-01-17T18:14:40.675Z,55.70
2023-01-17T18:17:07.563Z,55.12
2023-01-17T18:19:34.326Z,54.83
2023-01-17T18:22:03.347Z,54.25
2023-01-17T18:24:30.269Z,54.58
2023-01-17T18:26:57.957Z,54.39
2023-01-17T18:29:26.827Z,54.21
2023-01-17T18:31:54.734Z,54.37
2023-01-17T18:34:26.903Z,54.51
2023-01-17T18:36:54.132Z,53.88
2023-01-17T18:39:26.645Z,53.48
2023-01-17T18:41:54.524Z,53.46
2023-01-17T18:44:22.473Z,54.29
2023-01-17T18:46:54.266Z,54.53
2023-01-17T18:49:21.133Z,54.66
2023-01-17T18:51:51.883Z,54.01
2023-01-17T18:54:20.304Z,54.66
2023-01-17T18:56:48.030Z,54.36
2023-01-17T18:59:21.436Z,55.31
2023-01-17T19:01:48.301Z,55.43
2023-01-17T19:04:17.176Z,54.96
2023-01-17T19:06:47.004Z,54.89
2023-01-17T19:09:15.465Z,54.35
2023-01-17T19:11:46.150Z,54.14
2023-01-17T19:14:13.225Z,54.21
2023-01-17T19:16:41.464Z,54.08
2023-01-17T19:19:11.434Z,53.71
2023-01-17T19:21:38.389Z,54.08
2023-01-17T19:24:06.147Z,54.38
2023-01-17T19:26:33.234Z,54.55
2023-01-17T19:29:00.235Z,54.30
2023-01-17T19:31:29.285Z,53.66
2023-01-17T19:33:57.980Z,53.47
2023-01-17T19:36:27.800Z,53.34
2023-01-17T19:39:04.489Z,53.69
2023-01-17T19:41:38.277Z,52.81
2023-01-17T19:44:08.234Z,52.93
2023-01-17T19:46:36.316Z,52.83
2023-01-17T19:49:07.114Z,52.46
2023-01-17T19:51:34.360Z,53.56
2023-01-17T19:54:01.774Z,53.11
2023-01-17T19:56:29.817Z,53.43
2023-01-17T19:59:01.790Z,53.53
2023-01-17T20:01:31.617Z,54.02
2023-01-17T20:03:59.239Z,53.38
2023-01-17T20:06:28.746Z,53.39
2023-01-17T20:08:56.517Z,53.57
2023-01-17T20:11:25.051Z,53.65
2023-01-17T20:13:55.009Z,53.56
2023-01-17T20:16:23.696Z,53.63
2023-01-17T20:18:51.002Z,53.93
2023-01-17T20:21:21.106Z,53.94
2023-01-17T20:23:49.978Z,52.98
2023-01-17T20:26:29.603Z,52.74
2023-01-17T20:28:56.483Z,52.69
2023-01-17T20:31:25.265Z,52.52
2023-01-17T20:33:56.134Z,52.81
2023-01-17T20:36:28.915Z,53.28
2023-01-17T20:38:57.045Z,52.70
2023-01-17T20:41:28.712Z,53.02
2023-01-17T20:43:57.629Z,52.59
2023-01-17T20:46:31.222Z,52.54
2023-01-17T20:48:58.316Z,52.14
2023-01-17T20:51:26.975Z,52.71
2023-01-17T20:53:59.796Z,52.77
2023-01-17T20:56:27.607Z,52.45
2023-01-17T20:58:55.110Z,52.91
2023-01-17T21:01:23.062Z,53.27
2023-01-17T21:03:53.093Z,53.32
2023-01-17T21:06:22.118Z,53.88
2023-01-17T21:08:49.249Z,52.12
2023-01-17T21:11:18.652Z,52.07
2023-01-17T21:13:45.669Z,52.57
2023-01-17T21:16:14.261Z,52.31
2023-01-17T21:18:41.091Z,52.24
2023-01-17T21:21:14.481Z,53.10
2023-01-17T21:23:42.642Z,52.70
2023-01-17T21:26:15.273Z,52.26
2023-01-17T21:28:44.467Z,52.90
2023-01-17T21:31:31.111Z,52.42
2023-01-17T21:34:00.968Z,52.44
2023-01-17T21:36:31.035Z,52.42
2023-01-17T21:38:59.127Z,52.64
2023-01-17T21:41:28.682Z,52.52
2023-01-17T21:43:57.749Z,53.10
2023-01-17T21:46:25.464Z,53.46
2023-01-17T21:48:52.440Z,54.26
2023-01-17T21:51:21.630Z,54.28
2023-01-17T21:53:48.529Z,54.78
2023-01-17T21:56:34.054Z,54.26
2023-01-17T21:59:00.837Z,54.42
2023-01-17T22:01:30.308Z,55.05
2023-01-17T22:04:02.919Z,55.20
2023-01-17T22:06:32.088Z,54.98
2023-01-17T22:08:59.217Z,53.62
2023-01-17T22:11:27.351Z,53.57
2023-01-17T22:13:53.956Z,54.15
2023-01-17T22:16:25.897Z,53.74
2023-01-17T22:18:52.876Z,53.63
2023-01-17T22:21:28.213Z,54.57
2023-01-17T22:23:58.258Z,53.55
2023-01-17T22:26:31.208Z,53.62
2023-01-17T22:29:02.283Z,53.69
2023-01-17T22:31:29.600Z,53.80
2023-01-17T22:33:58.948Z,54.30
2023-01-17T22:36:26.488Z,54.81
2023-01-17T22:38:53.328Z,55.23
2023-01-17T22:41:25.711Z,55.49
2023-01-17T22:43:54.416Z,55.58
2023-01-17T22:46:24.850Z,55.81
2023-01-17T22:48:53.054Z,55.83
2023-01-17T22:51:20.953Z,55.38
2023-01-17T22:53:56.558Z,56.12
2023-01-17T22:56:26.571Z,56.38
2023-01-17T22:58:53.648Z,57.10
2023-01-17T23:01:23.862Z,57.03
2023-01-17T23:03:56.321Z,57.28
2023-01-17T23:06:27.204Z,57.75
2023-01-17T23:08:57.821Z,57.86
2023-01-17T23:11:40.711Z,57.51
2023-01-17T23:14:24.053Z,58.00
2023-01-17T23:17:10.507Z,57.38
2023-01-17T23:19:47.786Z,58.27
2023-01-17T23:22:19.600Z,58.54
2023-01-17T23:24:52.558Z,58.65
2023-01-17T23:27:45.614Z,58.85
2023-01-17T23:30:12.401Z,59.88
2023-01-17T23:32:43.139Z,59.20
2023-01-17T23:35:10.049Z,59.20
2023-01-17T23:37:55.203Z,58.88
2023-01-17T23:40:22.399Z,60.05
2023-01-17T23:43:07.666Z,60.72
2023-01-17T23:45:37.968Z,59.86
2023-01-17T23:48:09.369Z,59.60
2023-01-17T23:50:41.192Z,60.41
2023-01-17T23:53:08.627Z,59.79
2023-01-17T23:55:37.450Z,59.29
2023-01-17T23:58:09.483Z,60.07
